sensor_id;sensor_type;location;lat;lon;timestamp;P1;durP1;ratioP1;P2;durP2;ratioP2
77701;SDS011;66868;42.708;23.404;2024-02-16T00:00:04;17.07;;;11.87;;
77701;SDS011;66868;42.708;23.404;2024-02-16T00:02:31;23.77;;;12.07;;
77701;SDS011;66868;42.708;23.404;2024-02-16T00:04:57;26.27;;;12.90;;
77701;SDS011;66868;42.708;23.404;2024-02-16T00:07:23;21.30;;;12.10;;
77701;SDS011;66868;42.708;23.404;2024-02-16T00:09:49;31.10;;;11.23;;
77701;SDS011;66868;42.708;23.404;2024-02-16T00:12:15;20.13;;;11.17;;
77701;SDS011;66868;42.708;23.404;2024-02-16T00:14:41;25.27;;;11.20;;
77701;SDS011;66868;42.708;23.404;2024-02-16T00:17:07;22.43;;;11.33;;
77701;SDS011;66868;42.708;23.404;2024-02-16T00:19:35;16.40;;;10.67;;
77701;SDS011;66868;42.708;23.404;2024-02-16T00:22:01;20.87;;;9.83;;
77701;SDS011;66868;42.708;23.404;2024-02-16T00:24:26;19.20;;;10.97;;
77701;SDS011;66868;42.708;23.404;2024-02-16T00:26:52;23.83;;;11.33;;
77701;SDS011;66868;42.708;23.404;2024-02-16T00:29:17;24.50;;;11.97;;
77701;SDS011;66868;42.708;23.404;2024-02-16T00:31:44;17.83;;;10.83;;
77701;SDS011;66868;42.708;23.404;2024-02-16T00:34:10;22.60;;;10.93;;
77701;SDS011;66868;42.708;23.404;2024-02-16T00:36:35;33.10;;;12.53;;
77701;SDS011;66868;42.708;23.404;2024-02-16T00:39:01;24.23;;;13.60;;
77701;SDS011;66868;42.708;23.404;2024-02-16T00:41:28;23.77;;;12.77;;
77701;SDS011;66868;42.708;23.404;2024-02-16T00:43:54;20.90;;;12.13;;
77701;SDS011;66868;42.708;23.404;2024-02-16T00:46:21;17.93;;;11.97;;
77701;SDS011;66868;42.708;23.404;2024-02-16T00:48:48;20.40;;;12.00;;
77701;SDS011;66868;42.708;23.404;2024-02-16T00:51:17;23.60;;;11.43;;
77701;SDS011;66868;42.708;23.404;2024-02-16T00:53:42;24.53;;;11.93;;
77701;SDS011;66868;42.708;23.404;2024-02-16T00:56:08;22.07;;;12.67;;
77701;SDS011;66868;42.708;23.404;2024-02-16T00:58:34;24.80;;;13.20;;
77701;SDS011;66868;42.708;23.404;2024-02-16T01:01:00;48.43;;;14.60;;
77701;SDS011;66868;42.708;23.404;2024-02-16T01:03:25;42.03;;;18.70;;
77701;SDS011;66868;42.708;23.404;2024-02-16T01:05:54;43.37;;;18.40;;
77701;SDS011;66868;42.708;23.404;2024-02-16T01:08:19;27.93;;;14.13;;
77701;SDS011;66868;42.708;23.404;2024-02-16T01:10:45;37.00;;;17.37;;
77701;SDS011;66868;42.708;23.404;2024-02-16T01:13:12;40.37;;;17.00;;
77701;SDS011;66868;42.708;23.404;2024-02-16T01:15:37;26.13;;;13.50;;
77701;SDS011;66868;42.708;23.404;2024-02-16T01:18:06;27.80;;;13.90;;
77701;SDS011;66868;42.708;23.404;2024-02-16T01:20:31;21.80;;;12.43;;
77701;SDS011;66868;42.708;23.404;2024-02-16T01:22:57;25.03;;;12.27;;
77701;SDS011;66868;42.708;23.404;2024-02-16T01:25:23;22.17;;;11.77;;
77701;SDS011;66868;42.708;23.404;2024-02-16T01:27:48;21.30;;;11.13;;
77701;SDS011;66868;42.708;23.404;2024-02-16T01:30:14;21.07;;;11.80;;
77701;SDS011;66868;42.708;23.404;2024-02-16T01:32:40;18.43;;;11.87;;
77701;SDS011;66868;42.708;23.404;2024-02-16T01:35:06;24.73;;;12.47;;
77701;SDS011;66868;42.708;23.404;2024-02-16T01:37:32;23.77;;;12.47;;
77701;SDS011;66868;42.708;23.404;2024-02-16T01:39:57;22.57;;;12.30;;
77701;SDS011;66868;42.708;23.404;2024-02-16T01:42:23;24.33;;;11.83;;
77701;SDS011;66868;42.708;23.404;2024-02-16T01:44:49;22.53;;;11.97;;
77701;SDS011;66868;42.708;23.404;2024-02-16T01:47:15;25.30;;;13.80;;
77701;SDS011;66868;42.708;23.404;2024-02-16T01:49:44;27.00;;;13.40;;
77701;SDS011;66868;42.708;23.404;2024-02-16T01:52:10;22.70;;;13.20;;
77701;SDS011;66868;42.708;23.404;2024-02-16T01:54:35;27.97;;;13.17;;
77701;SDS011;66868;42.708;23.404;2024-02-16T01:57:02;23.13;;;13.27;;
77701;SDS011;66868;42.708;23.404;2024-02-16T01:59:30;23.70;;;13.37;;
77701;SDS011;66868;42.708;23.404;2024-02-16T02:01:56;26.10;;;13.00;;
77701;SDS011;66868;42.708;23.404;2024-02-16T02:04:21;25.17;;;14.70;;
77701;SDS011;66868;42.708;23.404;2024-02-16T02:06:47;26.63;;;14.50;;
77701;SDS011;66868;42.708;23.404;2024-02-16T02:09:12;32.23;;;14.87;;
77701;SDS011;66868;42.708;23.404;2024-02-16T02:11:38;25.97;;;14.43;;
77701;SDS011;66868;42.708;23.404;2024-02-16T02:14:03;30.87;;;15.03;;
77701;SDS011;66868;42.708;23.404;2024-02-16T02:16:29;31.27;;;16.90;;
77701;SDS011;66868;42.708;23.404;2024-02-16T02:18:54;25.50;;;13.63;;
77701;SDS011;66868;42.708;23.404;2024-02-16T02:21:20;23.13;;;12.33;;
77701;SDS011;66868;42.708;23.404;2024-02-16T02:23:45;29.60;;;13.23;;
77701;SDS011;66868;42.708;23.404;2024-02-16T02:26:13;27.73;;;14.73;;
77701;SDS011;66868;42.708;23.404;2024-02-16T02:28:41;25.97;;;14.43;;
77701;SDS011;66868;42.708;23.404;2024-02-16T02:31:07;24.30;;;13.73;;
77701;SDS011;66868;42.708;23.404;2024-02-16T02:33:34;33.80;;;14.43;;
77701;SDS011;66868;42.708;23.404;2024-02-16T02:36:00;24.17;;;13.10;;
77701;SDS011;66868;42.708;23.404;2024-02-16T02:38:26;26.13;;;14.50;;
77701;SDS011;66868;42.708;23.404;2024-02-16T02:40:52;32.37;;;17.13;;
77701;SDS011;66868;42.708;23.404;2024-02-16T02:43:17;37.53;;;15.63;;
77701;SDS011;66868;42.708;23.404;2024-02-16T02:45:44;28.77;;;15.60;;
77701;SDS011;66868;42.708;23.404;2024-02-16T02:48:10;32.70;;;15.63;;
77701;SDS011;66868;42.708;23.404;2024-02-16T02:50:35;32.20;;;16.13;;
77701;SDS011;66868;42.708;23.404;2024-02-16T02:53:01;26.77;;;15.33;;
77701;SDS011;66868;42.708;23.404;2024-02-16T02:55:26;31.93;;;15.17;;
77701;SDS011;66868;42.708;23.404;2024-02-16T02:57:52;36.17;;;15.70;;
77701;SDS011;66868;42.708;23.404;2024-02-16T03:00:17;30.40;;;15.60;;
77701;SDS011;66868;42.708;23.404;2024-02-16T03:02:43;24.03;;;12.43;;
77701;SDS011;66868;42.708;23.404;2024-02-16T03:05:12;18.43;;;10.47;;
77701;SDS011;66868;42.708;23.404;2024-02-16T03:07:37;18.50;;;10.60;;
77701;SDS011;66868;42.708;23.404;2024-02-16T03:10:04;17.27;;;10.23;;
77701;SDS011;66868;42.708;23.404;2024-02-16T03:12:31;16.47;;;10.87;;
77701;SDS011;66868;42.708;23.404;2024-02-16T03:14:57;22.67;;;11.07;;
77701;SDS011;66868;42.708;23.404;2024-02-16T03:17:22;18.33;;;10.83;;
77701;SDS011;66868;42.708;23.404;2024-02-16T03:19:48;16.93;;;10.60;;
77701;SDS011;66868;42.708;23.404;2024-02-16T03:22:13;20.03;;;10.53;;
77701;SDS011;66868;42.708;23.404;2024-02-16T03:24:39;17.80;;;10.37;;
77701;SDS011;66868;42.708;23.404;2024-02-16T03:27:04;27.63;;;11.57;;
77701;SDS011;66868;42.708;23.404;2024-02-16T03:29:30;24.80;;;11.80;;
77701;SDS011;66868;42.708;23.404;2024-02-16T03:31:55;25.13;;;10.87;;
77701;SDS011;66868;42.708;23.404;2024-02-16T03:34:21;17.90;;;10.53;;
77701;SDS011;66868;42.708;23.404;2024-02-16T03:36:46;19.30;;;10.77;;
77701;SDS011;66868;42.708;23.404;2024-02-16T03:39:12;19.23;;;10.10;;
77701;SDS011;66868;42.708;23.404;2024-02-16T03:41:38;16.17;;;11.10;;
77701;SDS011;66868;42.708;23.404;2024-02-16T03:44:03;21.37;;;10.67;;
77701;SDS011;66868;42.708;23.404;2024-02-16T03:46:29;22.90;;;10.73;;
77701;SDS011;66868;42.708;23.404;2024-02-16T03:48:55;20.80;;;12.57;;
77701;SDS011;66868;42.708;23.404;2024-02-16T03:51:21;27.13;;;15.93;;
77701;SDS011;66868;42.708;23.404;2024-02-16T03:53:46;24.17;;;14.10;;
77701;SDS011;66868;42.708;23.404;2024-02-16T03:56:17;27.87;;;13.67;;
77701;SDS011;66868;42.708;23.404;2024-02-16T03:58:43;22.53;;;14.07;;
77701;SDS011;66868;42.708;23.404;2024-02-16T04:01:09;33.63;;;16.50;;
77701;SDS011;66868;42.708;23.404;2024-02-16T04:03:34;20.50;;;12.70;;
77701;SDS011;66868;42.708;23.404;2024-02-16T04:06:00;26.63;;;14.10;;
77701;SDS011;66868;42.708;23.404;2024-02-16T04:08:26;20.37;;;12.00;;
77701;SDS011;66868;42.708;23.404;2024-02-16T04:10:52;20.47;;;12.40;;
77701;SDS011;66868;42.708;23.404;2024-02-16T04:13:17;25.67;;;12.47;;
77701;SDS011;66868;42.708;23.404;2024-02-16T04:15:43;29.27;;;12.73;;
77701;SDS011;66868;42.708;23.404;2024-02-16T04:18:08;24.27;;;12.27;;
77701;SDS011;66868;42.708;23.404;2024-02-16T04:20:34;23.23;;;12.67;;
77701;SDS011;66868;42.708;23.404;2024-02-16T04:23:00;37.93;;;16.67;;
77701;SDS011;66868;42.708;23.404;2024-02-16T04:25:26;28.33;;;13.90;;
77701;SDS011;66868;42.708;23.404;2024-02-16T04:27:51;27.70;;;14.00;;
77701;SDS011;66868;42.708;23.404;2024-02-16T04:30:18;26.67;;;14.10;;
77701;SDS011;66868;42.708;23.404;2024-02-16T04:32:43;26.07;;;13.53;;
77701;SDS011;66868;42.708;23.404;2024-02-16T04:35:09;26.80;;;12.87;;
77701;SDS011;66868;42.708;23.404;2024-02-16T04:37:37;31.53;;;14.67;;
77701;SDS011;66868;42.708;23.404;2024-02-16T04:40:04;35.83;;;15.87;;
77701;SDS011;66868;42.708;23.404;2024-02-16T04:42:31;34.03;;;17.67;;
77701;SDS011;66868;42.708;23.404;2024-02-16T04:44:57;28.23;;;14.57;;
77701;SDS011;66868;42.708;23.404;2024-02-16T04:47:24;40.47;;;16.30;;
77701;SDS011;66868;42.708;23.404;2024-02-16T04:49:50;31.83;;;16.17;;
77701;SDS011;66868;42.708;23.404;2024-02-16T04:52:16;33.43;;;17.50;;
77701;SDS011;66868;42.708;23.404;2024-02-16T04:54:41;35.77;;;17.17;;
77701;SDS011;66868;42.708;23.404;2024-02-16T04:57:07;26.00;;;15.47;;
77701;SDS011;66868;42.708;23.404;2024-02-16T04:59:32;27.23;;;14.57;;
77701;SDS011;66868;42.708;23.404;2024-02-16T05:01:58;34.90;;;17.97;;
77701;SDS011;66868;42.708;23.404;2024-02-16T05:04:23;49.73;;;20.97;;
77701;SDS011;66868;42.708;23.404;2024-02-16T05:06:49;48.40;;;21.70;;
77701;SDS011;66868;42.708;23.404;2024-02-16T05:09:16;43.30;;;20.27;;
77701;SDS011;66868;42.708;23.404;2024-02-16T05:11:42;48.53;;;17.17;;
77701;SDS011;66868;42.708;23.404;2024-02-16T05:14:09;125.30;;;31.57;;
77701;SDS011;66868;42.708;23.404;2024-02-16T05:16:37;113.00;;;31.07;;
77701;SDS011;66868;42.708;23.404;2024-02-16T05:19:02;83.07;;;23.73;;
77701;SDS011;66868;42.708;23.404;2024-02-16T05:21:28;47.13;;;18.43;;
77701;SDS011;66868;42.708;23.404;2024-02-16T05:23:54;31.33;;;15.90;;
77701;SDS011;66868;42.708;23.404;2024-02-16T05:26:20;31.17;;;15.37;;
77701;SDS011;66868;42.708;23.404;2024-02-16T05:28:45;34.17;;;16.50;;
77701;SDS011;66868;42.708;23.404;2024-02-16T05:31:15;36.33;;;15.03;;
77701;SDS011;66868;42.708;23.404;2024-02-16T05:33:43;33.23;;;15.43;;
77701;SDS011;66868;42.708;23.404;2024-02-16T05:36:10;31.77;;;15.80;;
77701;SDS011;66868;42.708;23.404;2024-02-16T05:38:35;37.77;;;14.93;;
77701;SDS011;66868;42.708;23.404;2024-02-16T05:41:08;58.93;;;18.73;;
77701;SDS011;66868;42.708;23.404;2024-02-16T05:43:34;60.30;;;22.80;;
77701;SDS011;66868;42.708;23.404;2024-02-16T05:46:00;67.50;;;22.60;;
77701;SDS011;66868;42.708;23.404;2024-02-16T05:48:26;53.70;;;21.60;;
77701;SDS011;66868;42.708;23.404;2024-02-16T05:51:01;49.90;;;21.13;;
77701;SDS011;66868;42.708;23.404;2024-02-16T05:53:27;61.87;;;20.50;;
77701;SDS011;66868;42.708;23.404;2024-02-16T05:55:53;42.30;;;19.80;;
77701;SDS011;66868;42.708;23.404;2024-02-16T05:58:20;36.23;;;17.63;;
77701;SDS011;66868;42.708;23.404;2024-02-16T06:00:46;35.57;;;16.47;;
77701;SDS011;66868;42.708;23.404;2024-02-16T06:03:12;33.37;;;16.57;;
77701;SDS011;66868;42.708;23.404;2024-02-16T06:05:38;47.03;;;18.93;;
77701;SDS011;66868;42.708;23.404;2024-02-16T06:08:05;55.17;;;18.27;;
77701;SDS011;66868;42.708;23.404;2024-02-16T06:10:32;42.80;;;18.17;;
77701;SDS011;66868;42.708;23.404;2024-02-16T06:12:58;51.80;;;21.23;;
77701;SDS011;66868;42.708;23.404;2024-02-16T06:15:24;61.63;;;22.93;;
77701;SDS011;66868;42.708;23.404;2024-02-16T06:17:50;193.47;;;54.37;;
77701;SDS011;66868;42.708;23.404;2024-02-16T06:20:16;109.83;;;37.43;;
77701;SDS011;66868;42.708;23.404;2024-02-16T06:22:41;66.83;;;29.13;;
77701;SDS011;66868;42.708;23.404;2024-02-16T06:25:07;129.20;;;40.57;;
77701;SDS011;66868;42.708;23.404;2024-02-16T06:27:34;131.70;;;40.10;;
77701;SDS011;66868;42.708;23.404;2024-02-16T06:29:59;78.20;;;32.23;;
77701;SDS011;66868;42.708;23.404;2024-02-16T06:32:25;59.57;;;25.33;;
77701;SDS011;66868;42.708;23.404;2024-02-16T06:34:51;58.43;;;23.40;;
77701;SDS011;66868;42.708;23.404;2024-02-16T06:37:17;49.00;;;23.43;;
77701;SDS011;66868;42.708;23.404;2024-02-16T06:39:43;56.30;;;21.53;;
77701;SDS011;66868;42.708;23.404;2024-02-16T06:42:08;44.27;;;20.23;;
77701;SDS011;66868;42.708;23.404;2024-02-16T06:44:37;32.73;;;16.97;;
77701;SDS011;66868;42.708;23.404;2024-02-16T06:47:03;34.23;;;17.37;;
77701;SDS011;66868;42.708;23.404;2024-02-16T06:49:29;39.37;;;16.77;;
77701;SDS011;66868;42.708;23.404;2024-02-16T06:51:55;25.63;;;15.27;;
77701;SDS011;66868;42.708;23.404;2024-02-16T06:54:20;36.93;;;16.87;;
77701;SDS011;66868;42.708;23.404;2024-02-16T06:56:46;35.00;;;17.10;;
77701;SDS011;66868;42.708;23.404;2024-02-16T06:59:11;37.43;;;18.37;;
77701;SDS011;66868;42.708;23.404;2024-02-16T07:01:37;37.27;;;19.03;;
77701;SDS011;66868;42.708;23.404;2024-02-16T07:04:02;41.43;;;16.70;;
77701;SDS011;66868;42.708;23.404;2024-02-16T07:06:28;33.97;;;16.40;;
77701;SDS011;66868;42.708;23.404;2024-02-16T07:08:53;33.40;;;15.83;;
77701;SDS011;66868;42.708;23.404;2024-02-16T07:11:19;32.47;;;17.57;;
77701;SDS011;66868;42.708;23.404;2024-02-16T07:13:46;34.70;;;16.07;;
77701;SDS011;66868;42.708;23.404;2024-02-16T07:16:12;31.73;;;16.00;;
77701;SDS011;66868;42.708;23.404;2024-02-16T07:18:37;31.80;;;15.87;;
77701;SDS011;66868;42.708;23.404;2024-02-16T07:21:03;29.37;;;15.50;;
77701;SDS011;66868;42.708;23.404;2024-02-16T07:23:29;30.57;;;16.73;;
77701;SDS011;66868;42.708;23.404;2024-02-16T07:25:55;24.90;;;15.60;;
77701;SDS011;66868;42.708;23.404;2024-02-16T07:28:22;37.50;;;17.03;;
77701;SDS011;66868;42.708;23.404;2024-02-16T07:30:48;41.53;;;17.83;;
77701;SDS011;66868;42.708;23.404;2024-02-16T07:33:15;38.70;;;17.17;;
77701;SDS011;66868;42.708;23.404;2024-02-16T07:35:40;38.73;;;17.50;;
77701;SDS011;66868;42.708;23.404;2024-02-16T07:38:06;32.87;;;17.37;;
77701;SDS011;66868;42.708;23.404;2024-02-16T07:40:32;28.83;;;17.73;;
77701;SDS011;66868;42.708;23.404;2024-02-16T07:42:58;42.33;;;18.23;;
77701;SDS011;66868;42.708;23.404;2024-02-16T07:45:24;34.87;;;17.97;;
77701;SDS011;66868;42.708;23.404;2024-02-16T07:47:50;56.23;;;19.77;;
77701;SDS011;66868;42.708;23.404;2024-02-16T07:50:19;26.70;;;16.73;;
77701;SDS011;66868;42.708;23.404;2024-02-16T07:52:45;33.73;;;17.17;;
77701;SDS011;66868;42.708;23.404;2024-02-16T07:55:11;39.80;;;18.40;;
77701;SDS011;66868;42.708;23.404;2024-02-16T07:57:37;32.43;;;17.47;;
77701;SDS011;66868;42.708;23.404;2024-02-16T08:00:03;34.50;;;18.30;;
77701;SDS011;66868;42.708;23.404;2024-02-16T08:02:29;31.30;;;18.30;;
77701;SDS011;66868;42.708;23.404;2024-02-16T08:04:55;34.17;;;17.37;;
77701;SDS011;66868;42.708;23.404;2024-02-16T08:07:20;41.73;;;18.03;;
77701;SDS011;66868;42.708;23.404;2024-02-16T08:09:46;28.03;;;17.20;;
77701;SDS011;66868;42.708;23.404;2024-02-16T08:12:12;35.37;;;19.27;;
77701;SDS011;66868;42.708;23.404;2024-02-16T08:14:41;35.63;;;18.30;;
77701;SDS011;66868;42.708;23.404;2024-02-16T08:17:07;29.83;;;18.83;;
77701;SDS011;66868;42.708;23.404;2024-02-16T08:19:34;36.47;;;18.93;;
77701;SDS011;66868;42.708;23.404;2024-02-16T08:22:04;35.30;;;18.77;;
77701;SDS011;66868;42.708;23.404;2024-02-16T08:24:31;31.83;;;17.90;;
77701;SDS011;66868;42.708;23.404;2024-02-16T08:26:58;47.63;;;20.97;;
77701;SDS011;66868;42.708;23.404;2024-02-16T08:29:23;36.13;;;21.37;;
77701;SDS011;66868;42.708;23.404;2024-02-16T08:31:50;44.77;;;20.47;;
77701;SDS011;66868;42.708;23.404;2024-02-16T08:34:16;38.50;;;19.03;;
77701;SDS011;66868;42.708;23.404;2024-02-16T08:36:48;32.43;;;18.80;;
77701;SDS011;66868;42.708;23.404;2024-02-16T08:39:14;38.77;;;19.30;;
77701;SDS011;66868;42.708;23.404;2024-02-16T08:41:41;39.97;;;18.83;;
77701;SDS011;66868;42.708;23.404;2024-02-16T08:44:07;36.30;;;18.60;;
77701;SDS011;66868;42.708;23.404;2024-02-16T08:46:35;29.50;;;16.77;;
77701;SDS011;66868;42.708;23.404;2024-02-16T08:49:02;33.40;;;17.73;;
77701;SDS011;66868;42.708;23.404;2024-02-16T08:51:28;32.50;;;16.20;;
77701;SDS011;66868;42.708;23.404;2024-02-16T08:53:53;42.25;;;18.35;;
77701;SDS011;66868;42.708;23.404;2024-02-16T08:56:19;35.37;;;17.37;;
77701;SDS011;66868;42.708;23.404;2024-02-16T08:58:44;32.60;;;16.47;;
77701;SDS011;66868;42.708;23.404;2024-02-16T09:01:10;29.37;;;16.33;;
77701;SDS011;66868;42.708;23.404;2024-02-16T09:03:36;34.13;;;15.83;;
77701;SDS011;66868;42.708;23.404;2024-02-16T09:06:04;32.43;;;15.57;;
77701;SDS011;66868;42.708;23.404;2024-02-16T09:08:30;42.17;;;18.17;;
77701;SDS011;66868;42.708;23.404;2024-02-16T09:11:00;50.45;;;17.17;;
77701;SDS011;66868;42.708;23.404;2024-02-16T09:13:30;39.53;;;17.00;;
77701;SDS011;66868;42.708;23.404;2024-02-16T09:16:02;31.75;;;16.92;;
77701;SDS011;66868;42.708;23.404;2024-02-16T09:18:30;31.23;;;16.17;;
77701;SDS011;66868;42.708;23.404;2024-02-16T09:20:56;38.47;;;17.58;;
77701;SDS011;66868;42.708;23.404;2024-02-16T09:23:21;36.15;;;16.40;;
77701;SDS011;66868;42.708;23.404;2024-02-16T09:25:47;31.98;;;16.02;;
77701;SDS011;66868;42.708;23.404;2024-02-16T09:28:14;30.02;;;14.82;;
77701;SDS011;66868;42.708;23.404;2024-02-16T09:30:40;30.50;;;15.10;;
77701;SDS011;66868;42.708;23.404;2024-02-16T09:33:05;32.60;;;16.30;;
77701;SDS011;66868;42.708;23.404;2024-02-16T09:35:32;25.20;;;14.93;;
77701;SDS011;66868;42.708;23.404;2024-02-16T09:37:58;31.30;;;14.95;;
77701;SDS011;66868;42.708;23.404;2024-02-16T09:40:23;26.98;;;13.15;;
77701;SDS011;66868;42.708;23.404;2024-02-16T09:42:49;148.50;;;51.40;;
77701;SDS011;66868;42.708;23.404;2024-02-16T09:45:15;21.13;;;14.35;;
77701;SDS011;66868;42.708;23.404;2024-02-16T09:47:50;24.10;;;11.45;;
77701;SDS011;66868;42.708;23.404;2024-02-16T09:50:17;15.98;;;10.52;;
77701;SDS011;66868;42.708;23.404;2024-02-16T09:52:46;13.88;;;8.07;;
77701;SDS011;66868;42.708;23.404;2024-02-16T09:55:13;11.07;;;6.35;;
77701;SDS011;66868;42.708;23.404;2024-02-16T09:57:40;10.55;;;6.40;;
77701;SDS011;66868;42.708;23.404;2024-02-16T10:00:05;15.00;;;7.50;;
77701;SDS011;66868;42.708;23.404;2024-02-16T10:05:16;13.10;;;8.48;;
77701;SDS011;66868;42.708;23.404;2024-02-16T10:07:43;12.40;;;7.45;;
77701;SDS011;66868;42.708;23.404;2024-02-16T10:10:21;9.48;;;6.65;;
77701;SDS011;66868;42.708;23.404;2024-02-16T10:13:03;12.35;;;7.57;;
77701;SDS011;66868;42.708;23.404;2024-02-16T10:15:30;14.52;;;7.70;;
77701;SDS011;66868;42.708;23.404;2024-02-16T10:20:26;26.08;;;7.72;;
77701;SDS011;66868;42.708;23.404;2024-02-16T10:23:10;10.50;;;7.45;;
77701;SDS011;66868;42.708;23.404;2024-02-16T10:25:37;8.00;;;7.18;;
77701;SDS011;66868;42.708;23.404;2024-02-16T10:28:06;10.65;;;6.65;;
77701;SDS011;66868;42.708;23.404;2024-02-16T10:30:37;8.45;;;6.97;;
77701;SDS011;66868;42.708;23.404;2024-02-16T10:33:05;8.95;;;6.80;;
77701;SDS011;66868;42.708;23.404;2024-02-16T10:35:32;13.25;;;6.93;;
77701;SDS011;66868;42.708;23.404;2024-02-16T10:38:00;6.97;;;4.97;;
77701;SDS011;66868;42.708;23.404;2024-02-16T10:40:30;5.85;;;5.00;;
77701;SDS011;66868;42.708;23.404;2024-02-16T10:43:00;9.63;;;4.78;;
77701;SDS011;66868;42.708;23.404;2024-02-16T10:45:29;8.27;;;4.65;;
77701;SDS011;66868;42.708;23.404;2024-02-16T10:47:56;6.68;;;4.70;;
77701;SDS011;66868;42.708;23.404;2024-02-16T10:50:22;5.03;;;4.60;;
77701;SDS011;66868;42.708;23.404;2024-02-16T10:52:48;5.82;;;4.78;;
77701;SDS011;66868;42.708;23.404;2024-02-16T10:55:15;5.40;;;4.80;;
77701;SDS011;66868;42.708;23.404;2024-02-16T10:57:41;8.32;;;4.43;;
77701;SDS011;66868;42.708;23.404;2024-02-16T11:00:10;20.73;;;4.43;;
77701;SDS011;66868;42.708;23.404;2024-02-16T11:02:58;11.27;;;4.60;;
77701;SDS011;66868;42.708;23.404;2024-02-16T11:05:35;7.18;;;3.97;;
77701;SDS011;66868;42.708;23.404;2024-02-16T11:08:11;6.20;;;3.47;;
77701;SDS011;66868;42.708;23.404;2024-02-16T11:10:38;4.55;;;4.15;;
77701;SDS011;66868;42.708;23.404;2024-02-16T11:13:04;24.20;;;4.55;;
77701;SDS011;66868;42.708;23.404;2024-02-16T11:15:30;4.40;;;4.10;;
77701;SDS011;66868;42.708;23.404;2024-02-16T11:17:57;4.35;;;4.05;;
77701;SDS011;66868;42.708;23.404;2024-02-16T11:20:25;4.90;;;4.40;;
77701;SDS011;66868;42.708;23.404;2024-02-16T11:22:51;4.82;;;4.13;;
77701;SDS011;66868;42.708;23.404;2024-02-16T11:25:18;7.15;;;4.75;;
77701;SDS011;66868;42.708;23.404;2024-02-16T11:27:45;5.97;;;4.32;;
77701;SDS011;66868;42.708;23.404;2024-02-16T11:30:12;4.60;;;4.30;;
77701;SDS011;66868;42.708;23.404;2024-02-16T11:32:38;3.75;;;3.55;;
77701;SDS011;66868;42.708;23.404;2024-02-16T11:35:08;3.55;;;3.35;;
77701;SDS011;66868;42.708;23.404;2024-02-16T11:37:34;7.47;;;4.15;;
77701;SDS011;66868;42.708;23.404;2024-02-16T11:39:59;4.13;;;3.92;;
77701;SDS011;66868;42.708;23.404;2024-02-16T11:42:25;4.18;;;3.85;;
77701;SDS011;66868;42.708;23.404;2024-02-16T11:44:54;6.15;;;3.53;;
77701;SDS011;66868;42.708;23.404;2024-02-16T11:47:23;3.97;;;3.78;;
77701;SDS011;66868;42.708;23.404;2024-02-16T11:50:03;3.80;;;3.50;;
77701;SDS011;66868;42.708;23.404;2024-02-16T11:52:39;3.40;;;3.20;;
77701;SDS011;66868;42.708;23.404;2024-02-16T11:55:08;3.67;;;3.38;;
77701;SDS011;66868;42.708;23.404;2024-02-16T11:57:35;6.72;;;4.15;;
77701;SDS011;66868;42.708;23.404;2024-02-16T12:00:01;13.88;;;4.57;;
77701;SDS011;66868;42.708;23.404;2024-02-16T12:02:36;4.07;;;3.75;;
77701;SDS011;66868;42.708;23.404;2024-02-16T12:05:02;7.80;;;4.22;;
77701;SDS011;66868;42.708;23.404;2024-02-16T12:07:28;5.00;;;3.72;;
77701;SDS011;66868;42.708;23.404;2024-02-16T12:10:00;14.35;;;4.70;;
77701;SDS011;66868;42.708;23.404;2024-02-16T12:12:30;3.78;;;3.58;;
77701;SDS011;66868;42.708;23.404;2024-02-16T12:14:56;8.45;;;3.95;;
77701;SDS011;66868;42.708;23.404;2024-02-16T12:17:22;3.92;;;3.60;;
77701;SDS011;66868;42.708;23.404;2024-02-16T12:19:49;4.00;;;3.70;;
77701;SDS011;66868;42.708;23.404;2024-02-16T12:22:22;4.18;;;3.78;;
77701;SDS011;66868;42.708;23.404;2024-02-16T12:24:49;4.85;;;4.53;;
77701;SDS011;66868;42.708;23.404;2024-02-16T12:27:16;3.90;;;3.60;;
77701;SDS011;66868;42.708;23.404;2024-02-16T12:29:41;4.35;;;4.15;;
77701;SDS011;66868;42.708;23.404;2024-02-16T12:32:07;7.47;;;3.88;;
77701;SDS011;66868;42.708;23.404;2024-02-16T12:34:34;4.40;;;4.07;;
77701;SDS011;66868;42.708;23.404;2024-02-16T12:37:04;4.10;;;3.80;;
77701;SDS011;66868;42.708;23.404;2024-02-16T12:39:32;4.43;;;3.90;;
77701;SDS011;66868;42.708;23.404;2024-02-16T12:41:58;4.72;;;3.80;;
77701;SDS011;66868;42.708;23.404;2024-02-16T12:44:23;3.83;;;3.53;;
77701;SDS011;66868;42.708;23.404;2024-02-16T12:46:49;7.57;;;3.80;;
77701;SDS011;66868;42.708;23.404;2024-02-16T12:49:14;4.38;;;3.97;;
77701;SDS011;66868;42.708;23.404;2024-02-16T12:51:40;7.97;;;4.50;;
77701;SDS011;66868;42.708;23.404;2024-02-16T12:54:06;5.78;;;3.90;;
77701;SDS011;66868;42.708;23.404;2024-02-16T12:56:32;3.85;;;3.60;;
77701;SDS011;66868;42.708;23.404;2024-02-16T12:58:57;4.22;;;3.88;;
77701;SDS011;66868;42.708;23.404;2024-02-16T13:01:25;4.80;;;3.58;;
77701;SDS011;66868;42.708;23.404;2024-02-16T13:03:50;4.32;;;3.25;;
77701;SDS011;66868;42.708;23.404;2024-02-16T13:06:16;9.15;;;3.42;;
77701;SDS011;66868;42.708;23.404;2024-02-16T13:08:41;7.68;;;4.13;;
77701;SDS011;66868;42.708;23.404;2024-02-16T13:11:07;6.25;;;4.32;;
77701;SDS011;66868;42.708;23.404;2024-02-16T13:13:33;4.28;;;3.70;;
77701;SDS011;66868;42.708;23.404;2024-02-16T13:15:59;6.35;;;3.75;;
77701;SDS011;66868;42.708;23.404;2024-02-16T13:18:24;4.75;;;3.25;;
77701;SDS011;66868;42.708;23.404;2024-02-16T13:20:50;3.45;;;2.85;;
77701;SDS011;66868;42.708;23.404;2024-02-16T13:23:15;2.70;;;2.60;;
77701;SDS011;66868;42.708;23.404;2024-02-16T13:25:41;3.40;;;2.20;;
77701;SDS011;66868;42.708;23.404;2024-02-16T13:28:06;2.33;;;2.22;;
77701;SDS011;66868;42.708;23.404;2024-02-16T13:30:32;4.82;;;2.60;;
77701;SDS011;66868;42.708;23.404;2024-02-16T13:32:57;4.90;;;4.40;;
77701;SDS011;66868;42.708;23.404;2024-02-16T13:35:23;6.93;;;2.78;;
77701;SDS011;66868;42.708;23.404;2024-02-16T13:37:49;8.55;;;3.15;;
77701;SDS011;66868;42.708;23.404;2024-02-16T13:40:14;4.53;;;3.22;;
77701;SDS011;66868;42.708;23.404;2024-02-16T13:42:40;4.60;;;2.40;;
77701;SDS011;66868;42.708;23.404;2024-02-16T13:45:07;3.22;;;2.58;;
77701;SDS011;66868;42.708;23.404;2024-02-16T13:47:33;2.65;;;2.45;;
77701;SDS011;66868;42.708;23.404;2024-02-16T13:49:59;3.00;;;2.63;;
77701;SDS011;66868;42.708;23.404;2024-02-16T13:52:25;2.70;;;2.60;;
77701;SDS011;66868;42.708;23.404;2024-02-16T13:54:51;2.45;;;2.35;;
77701;SDS011;66868;42.708;23.404;2024-02-16T13:57:17;2.25;;;2.15;;
77701;SDS011;66868;42.708;23.404;2024-02-16T13:59:43;2.35;;;2.25;;
77701;SDS011;66868;42.708;23.404;2024-02-16T14:02:09;2.47;;;2.20;;
77701;SDS011;66868;42.708;23.404;2024-02-16T14:04:35;21.60;;;3.42;;
77701;SDS011;66868;42.708;23.404;2024-02-16T14:07:01;3.05;;;2.65;;
77701;SDS011;66868;42.708;23.404;2024-02-16T14:09:26;2.92;;;2.78;;
77701;SDS011;66868;42.708;23.404;2024-02-16T14:11:52;3.45;;;3.25;;
77701;SDS011;66868;42.708;23.404;2024-02-16T14:14:23;15.73;;;2.83;;
77701;SDS011;66868;42.708;23.404;2024-02-16T14:16:49;3.13;;;2.88;;